Airfield :
LOGIN :

Register | Disclaimer

   EN    FR    IT 

 










Legend :    VFR   Marginal VFR   IFR   Intensive IFR   Very Intensive IFR
Visi :
Ceiling :
>= 8 km
>= 3000ft
5 to 8 km
1000 to 3000 ft
1500m to 5 km
500 to 1000 ft
800 to 1500m
200 to 500 ft
< 800m
< 200 ft
Symbols :   Thunderstorms  Fog  Heavy snow  Heavy precipitations  Wind > 20 kt
SIGMETs :     Misc.  Thunderstorms  Icing  Turbulence  Mountain Waves  Volcanic Ashes







- Airport Elevation : 290 ft
- IATA code : ACI
- Download approach charts


EGJA - Alderney

CURRENT METAR :
  • 191120Z 31009KT 9999 FEW000 BKN004 10/// Q1018

EXPIRED METARs :
  • 191050Z 30007KT 0900 R26/0900 FG OVC000 10/// Q1018
  • 191020Z 30008KT 0600 R26/0900 FG OVC000 09/// Q1018
  • 190950Z 29007KT 0400 R26/0600 FG OVC000 09/// Q1018
  • 190920Z 29007KT 0250 R26/0400 FG OVC000 09/// Q1018
  • 190850Z 30007KT 0400 R26/0600 FG OVC000 09/// Q1018

TAF TAF EGJA
Valid from the 19 at 09:00 until the 19 at 18:00 UTC


190758Z 1909/1918 31009KT 0200 -DZRA FG BKN000
PROB30
TEMPO 1909/1913 1200 VCFG BKN001
BECMG 1913/1915 6000 NSW BKN006
No reported NOTAMs for that airfield.



MET'MAP, your aeronautical weather chart ! - Copyright ORBIFLY December 2007 - Disclaimer

ORBIFLY MET'MAP TEAM :

Programming & Development : Alexandra Zaïnal
Concept & Development : Baudouin d'Aumeries
Co-Development & Prog : Marc-Olivier Méhu
Technical & hardware support : Manuel Goepfert

Contact : metmap@orbifly.com




SOURCES & CREDITS :

   NOAA